createdAt,value
2019-01-20T00:00:56.695Z,-4.90
2019-01-20T00:03:25.879Z,-4.90
2019-01-20T00:05:54.788Z,-5.00
2019-01-20T00:08:23.728Z,-5.10
2019-01-20T00:10:52.640Z,-5.30
2019-01-20T00:13:21.689Z,-5.30
2019-01-20T00:15:51.962Z,-5.40
2019-01-20T00:18:23.038Z,-5.40
2019-01-20T00:20:51.979Z,-5.50
2019-01-20T00:23:23.831Z,-5.60
2019-01-20T00:25:53.695Z,-5.70
2019-01-20T00:28:22.744Z,-5.70
2019-01-20T00:30:53.001Z,-5.70
2019-01-20T00:33:21.981Z,-5.80
2019-01-20T00:35:51.029Z,-5.90
2019-01-20T00:38:20.033Z,-6.10
2019-01-20T00:40:48.975Z,-6.20
2019-01-20T00:43:19.141Z,-6.30
2019-01-20T00:45:47.941Z,-6.30
2019-01-20T00:48:16.955Z,-6.30
2019-01-20T00:50:45.812Z,-6.50
2019-01-20T00:53:14.985Z,-6.60
2019-01-20T00:55:45.366Z,-6.70
2019-01-20T00:58:14.437Z,-6.80
2019-01-20T01:00:44.862Z,-6.90
2019-01-20T01:03:14.181Z,-6.90
2019-01-20T01:05:43.187Z,-6.80
2019-01-20T01:08:14.814Z,-6.70
2019-01-20T01:10:53.556Z,-6.80
2019-01-20T01:13:23.097Z,-6.90
2019-01-20T01:15:52.194Z,-6.90
2019-01-20T01:18:21.135Z,-7.00
2019-01-20T01:20:50.041Z,-7.10
2019-01-20T01:23:21.841Z,-7.10
2019-01-20T01:25:50.776Z,-7.00
2019-01-20T01:28:19.906Z,-7.00
2019-01-20T01:30:48.913Z,-6.90
2019-01-20T01:33:17.899Z,-6.60
2019-01-20T01:35:46.903Z,-6.20
2019-01-20T01:38:15.833Z,-5.80
2019-01-20T01:40:44.653Z,-5.30
2019-01-20T01:43:13.575Z,-5.00
2019-01-20T01:45:42.621Z,-4.80
2019-01-20T01:48:11.500Z,-4.80
2019-01-20T01:50:40.318Z,-4.80
2019-01-20T01:53:09.303Z,-4.80
2019-01-20T01:55:39.207Z,-4.80
2019-01-20T01:58:08.349Z,-4.90
2019-01-20T02:00:37.429Z,-5.00
2019-01-20T02:03:06.445Z,-5.00
2019-01-20T02:05:36.824Z,-5.00
2019-01-20T02:08:06.243Z,-5.10
2019-01-20T02:10:35.701Z,-5.10
2019-01-20T02:13:04.809Z,-5.20
2019-01-20T02:15:33.802Z,-5.30
2019-01-20T02:18:02.903Z,-5.20
2019-01-20T02:20:34.490Z,-5.20
2019-01-20T02:23:03.359Z,-5.30
2019-01-20T02:25:32.276Z,-5.50
2019-01-20T02:28:01.290Z,-5.60
2019-01-20T02:30:31.144Z,-5.70
2019-01-20T02:33:08.228Z,-5.80
2019-01-20T02:35:35.154Z,-5.80
2019-01-20T02:38:05.887Z,-5.90
2019-01-20T02:40:36.337Z,-5.80
2019-01-20T02:43:06.606Z,-5.70
2019-01-20T02:45:35.485Z,-5.60
2019-01-20T02:48:07.847Z,-5.60
2019-01-20T02:50:37.171Z,-5.60
2019-01-20T02:53:06.400Z,-5.60
2019-01-20T02:55:35.522Z,-5.60
2019-01-20T02:58:07.257Z,-5.70
2019-01-20T03:00:36.693Z,-5.50
2019-01-20T03:03:05.644Z,-5.50
2019-01-20T03:05:34.762Z,-5.60
2019-01-20T03:08:03.758Z,-5.70
2019-01-20T03:10:33.376Z,-5.80
2019-01-20T03:13:02.285Z,-6.10
2019-01-20T03:15:31.325Z,-6.30
2019-01-20T03:18:00.223Z,-6.40
2019-01-20T03:20:29.087Z,-6.20
2019-01-20T03:22:57.987Z,-6.00
2019-01-20T03:25:30.391Z,-6.10
2019-01-20T03:27:59.283Z,-6.30
2019-01-20T03:30:28.999Z,-6.50
2019-01-20T03:32:57.909Z,-6.70
2019-01-20T03:35:28.207Z,-7.00
2019-01-20T03:37:59.948Z,-7.10
2019-01-20T03:40:30.216Z,-7.00
2019-01-20T03:43:01.921Z,-6.80
2019-01-20T03:45:30.813Z,-6.50
2019-01-20T03:48:01.167Z,-6.20
2019-01-20T03:50:30.531Z,-6.10
2019-01-20T03:53:00.067Z,-6.20
2019-01-20T03:55:29.865Z,-6.40
2019-01-20T03:58:00.146Z,-6.60
2019-01-20T04:00:29.062Z,-6.70
2019-01-20T04:03:00.023Z,-6.70
2019-01-20T04:05:30.610Z,-6.90
2019-01-20T04:07:59.955Z,-7.00
2019-01-20T04:10:30.189Z,-7.00
2019-01-20T04:12:59.383Z,-6.90
2019-01-20T04:15:29.551Z,-6.60
2019-01-20T04:17:58.484Z,-6.40
2019-01-20T04:20:27.880Z,-6.30
2019-01-20T04:22:56.753Z,-6.30
2019-01-20T04:25:25.623Z,-6.50
2019-01-20T04:27:54.653Z,-6.80
2019-01-20T04:30:23.652Z,-7.10
2019-01-20T04:32:52.676Z,-7.30
2019-01-20T04:35:23.009Z,-7.50
2019-01-20T04:37:53.993Z,-7.60
2019-01-20T04:40:23.499Z,-7.60
2019-01-20T04:42:52.509Z,-7.50
2019-01-20T04:45:24.812Z,-7.20
2019-01-20T04:47:54.078Z,-6.90
2019-01-20T04:50:24.847Z,-6.70
2019-01-20T04:52:53.720Z,-6.60
2019-01-20T04:55:25.848Z,-6.50
2019-01-20T04:57:55.440Z,-6.50
2019-01-20T05:00:26.727Z,-6.50
2019-01-20T05:02:56.422Z,-6.70
2019-01-20T05:05:25.645Z,-6.90
2019-01-20T05:07:56.175Z,-6.90
2019-01-20T05:10:26.564Z,-6.90
2019-01-20T05:12:56.195Z,-6.90
2019-01-20T05:15:25.301Z,-7.00
2019-01-20T05:17:54.128Z,-7.00
2019-01-20T05:20:23.870Z,-7.10
2019-01-20T05:22:52.858Z,-7.30
2019-01-20T05:25:22.115Z,-7.50
2019-01-20T05:27:51.183Z,-7.60
2019-01-20T05:30:23.671Z,-7.50
2019-01-20T05:32:52.874Z,-7.60
2019-01-20T05:35:23.747Z,-7.70
2019-01-20T05:37:52.670Z,-7.80
2019-01-20T05:40:23.507Z,-7.60
2019-01-20T05:42:52.397Z,-7.40
2019-01-20T05:45:23.446Z,-7.30
2019-01-20T05:47:57.200Z,-7.20
2019-01-20T05:50:26.426Z,-7.00
2019-01-20T05:52:56.318Z,-6.50
2019-01-20T05:55:25.301Z,-6.30
2019-01-20T05:57:54.242Z,-6.40
2019-01-20T06:00:25.877Z,-6.50
2019-01-20T06:02:55.730Z,-6.50
2019-01-20T06:05:25.420Z,-6.70
2019-01-20T06:07:54.393Z,-6.70
2019-01-20T06:10:24.852Z,-6.80
2019-01-20T06:12:54.584Z,-7.00
2019-01-20T06:15:25.362Z,-7.30
2019-01-20T06:17:54.965Z,-7.40
2019-01-20T06:20:24.317Z,-7.60
2019-01-20T06:22:53.358Z,-7.70
2019-01-20T06:25:24.920Z,-7.70
2019-01-20T06:27:55.380Z,-7.80
2019-01-20T06:30:28.349Z,-7.90
2019-01-20T06:32:57.379Z,-7.90
2019-01-20T06:35:27.555Z,-7.70
2019-01-20T06:37:56.463Z,-7.60
2019-01-20T06:40:26.739Z,-7.60
2019-01-20T06:43:01.769Z,-7.70
2019-01-20T06:45:26.476Z,-7.60
2019-01-20T06:47:56.039Z,-7.50
2019-01-20T06:50:26.098Z,-7.40
2019-01-20T06:52:56.537Z,-7.30
2019-01-20T06:55:26.348Z,-7.30
2019-01-20T06:57:55.263Z,-7.30
2019-01-20T07:00:27.475Z,-7.30
2019-01-20T07:02:56.370Z,-7.30
2019-01-20T07:05:25.312Z,-7.20
2019-01-20T07:07:54.632Z,-7.10
2019-01-20T07:10:26.479Z,-7.00
2019-01-20T07:12:56.108Z,-6.90
2019-01-20T07:15:25.254Z,-6.80
2019-01-20T07:17:54.450Z,-6.90
2019-01-20T07:20:23.911Z,-7.00
2019-01-20T07:22:54.233Z,-6.90
2019-01-20T07:25:24.533Z,-6.80
2019-01-20T07:27:55.437Z,-6.90
2019-01-20T07:30:25.972Z,-7.00
2019-01-20T07:32:57.603Z,-7.00
2019-01-20T07:35:28.474Z,-7.10
2019-01-20T07:37:57.448Z,-7.00
2019-01-20T07:40:26.386Z,-6.70
2019-01-20T07:42:56.130Z,-6.30
2019-01-20T07:45:25.064Z,-6.00
2019-01-20T07:47:53.989Z,-5.50
2019-01-20T07:50:25.028Z,-5.10
2019-01-20T07:52:54.136Z,-4.60
2019-01-20T07:55:23.246Z,-4.20
2019-01-20T07:57:53.282Z,-3.80
2019-01-20T08:00:24.384Z,-3.50
2019-01-20T08:02:53.485Z,-3.10
2019-01-20T08:05:24.556Z,-2.70
2019-01-20T08:07:53.576Z,-2.50
2019-01-20T08:10:25.000Z,-2.20
2019-01-20T08:12:54.039Z,-1.90
2019-01-20T08:15:23.222Z,-2.00
2019-01-20T08:17:53.589Z,-1.90
2019-01-20T08:20:24.288Z,-1.90
2019-01-20T08:22:53.503Z,-1.70
2019-01-20T08:25:23.552Z,-1.30
2019-01-20T08:27:52.689Z,-1.20
2019-01-20T08:30:23.966Z,-1.50
2019-01-20T08:32:52.962Z,-1.10
2019-01-20T08:35:23.983Z,-1.10
2019-01-20T08:37:53.022Z,-0.70
2019-01-20T08:40:24.443Z,-0.90
2019-01-20T08:42:53.296Z,-0.90
2019-01-20T08:45:23.542Z,-1.10
2019-01-20T08:47:54.326Z,-0.80
2019-01-20T08:50:24.032Z,-0.60
2019-01-20T08:52:52.920Z,-1.10
2019-01-20T08:55:22.239Z,-1.10
2019-01-20T08:57:51.050Z,-0.80
2019-01-20T09:00:20.294Z,-0.20
2019-01-20T09:02:50.654Z,0.10
2019-01-20T09:05:21.110Z,-0.20
2019-01-20T09:07:51.531Z,0.20
2019-01-20T09:10:25.102Z,0.70
2019-01-20T09:12:56.440Z,0.80
2019-01-20T09:15:25.409Z,0.50
2019-01-20T09:17:54.416Z,0.20
2019-01-20T09:20:24.343Z,0.40
2019-01-20T09:22:54.629Z,0.60
2019-01-20T09:25:23.697Z,0.50
2019-01-20T09:27:52.683Z,0.20
2019-01-20T09:30:23.535Z,0.20
2019-01-20T09:32:52.767Z,0.50
2019-01-20T09:35:22.669Z,1.10
2019-01-20T09:37:53.783Z,1.50
2019-01-20T09:40:22.867Z,1.00
2019-01-20T09:42:52.778Z,0.70
2019-01-20T09:45:27.169Z,0.50
2019-01-20T09:47:56.399Z,0.50
2019-01-20T09:50:25.625Z,0.40
2019-01-20T09:52:54.906Z,0.50
2019-01-20T09:55:23.998Z,0.30
2019-01-20T09:57:54.122Z,0.00
2019-01-20T10:00:26.173Z,0.00
2019-01-20T10:02:55.454Z,0.20
2019-01-20T10:05:25.846Z,0.20
2019-01-20T10:08:01.048Z,0.20
2019-01-20T10:10:30.699Z,-0.10
2019-01-20T10:12:59.736Z,-0.40
2019-01-20T10:15:28.651Z,-0.60
2019-01-20T10:17:58.227Z,-0.60
2019-01-20T10:20:29.633Z,-0.30
2019-01-20T10:22:59.597Z,-0.10
2019-01-20T10:25:28.674Z,-0.10
2019-01-20T10:27:58.800Z,-0.40
2019-01-20T10:30:30.453Z,-0.50
2019-01-20T10:33:03.672Z,-0.70
2019-01-20T10:35:35.640Z,-0.60
2019-01-20T10:38:06.816Z,-0.60
2019-01-20T10:40:35.706Z,-0.50
2019-01-20T10:43:06.485Z,-0.40
2019-01-20T10:45:35.782Z,-0.60
2019-01-20T10:48:05.866Z,-0.50
2019-01-20T10:50:34.867Z,-0.60
2019-01-20T10:53:03.932Z,-0.50
2019-01-20T10:55:33.454Z,-0.50
2019-01-20T10:58:03.112Z,-0.50
2019-01-20T11:00:36.531Z,-0.50
2019-01-20T11:03:06.848Z,-0.50
2019-01-20T11:05:36.201Z,-0.40
2019-01-20T11:08:06.822Z,-0.40
2019-01-20T11:10:36.012Z,-0.40
2019-01-20T11:13:05.690Z,-0.40
2019-01-20T11:15:34.712Z,-0.40
2019-01-20T11:18:03.749Z,-0.40
2019-01-20T11:20:34.116Z,-0.40
2019-01-20T11:23:03.152Z,-0.30
2019-01-20T11:25:35.441Z,-0.30
2019-01-20T11:28:04.849Z,-0.20
2019-01-20T11:30:34.012Z,-0.30
2019-01-20T11:33:05.202Z,-0.20
2019-01-20T11:35:35.521Z,-0.10
2019-01-20T11:38:05.991Z,0.00
2019-01-20T11:40:36.473Z,0.10
2019-01-20T11:43:07.111Z,0.10
2019-01-20T11:45:36.243Z,0.20
2019-01-20T11:48:08.737Z,0.20
2019-01-20T11:50:38.443Z,0.30
2019-01-20T11:53:07.473Z,0.40
2019-01-20T11:55:37.197Z,0.50
2019-01-20T11:58:06.156Z,0.50
2019-01-20T12:00:36.839Z,0.60
2019-01-20T12:03:07.782Z,0.70
2019-01-20T12:05:39.625Z,0.70
2019-01-20T12:08:09.149Z,0.80
2019-01-20T12:10:38.357Z,0.80
2019-01-20T12:13:10.200Z,0.90
2019-01-20T12:15:39.059Z,0.90
2019-01-20T12:18:08.048Z,0.80
2019-01-20T12:20:39.599Z,0.90
2019-01-20T12:23:08.684Z,1.00
2019-01-20T12:25:37.927Z,1.20
2019-01-20T12:28:07.034Z,1.20
2019-01-20T12:30:38.549Z,1.20
2019-01-20T12:33:07.888Z,1.30
2019-01-20T12:35:38.339Z,1.30
2019-01-20T12:38:07.388Z,1.20
2019-01-20T12:40:39.281Z,1.30
2019-01-20T12:43:11.482Z,1.20
2019-01-20T12:45:40.663Z,1.30
2019-01-20T12:48:09.669Z,1.40
2019-01-20T12:50:38.565Z,1.40
2019-01-20T12:53:10.213Z,1.50
2019-01-20T12:55:40.691Z,1.50
2019-01-20T12:58:11.242Z,1.60
2019-01-20T13:00:40.291Z,1.60
2019-01-20T13:03:11.892Z,1.60
2019-01-20T13:05:40.765Z,1.70
2019-01-20T13:08:09.650Z,1.70
2019-01-20T13:10:38.752Z,1.70
2019-01-20T13:13:09.128Z,1.80
2019-01-20T13:15:39.333Z,1.70
2019-01-20T13:18:08.546Z,1.70
2019-01-20T13:20:37.697Z,1.70
2019-01-20T13:23:06.713Z,1.80
2019-01-20T13:25:35.827Z,1.80
2019-01-20T13:28:05.683Z,1.90
2019-01-20T13:30:34.691Z,2.00
2019-01-20T13:33:03.633Z,2.00
2019-01-20T13:35:33.911Z,1.90
2019-01-20T13:38:05.412Z,1.90
2019-01-20T13:40:37.510Z,1.90
2019-01-20T13:43:07.779Z,1.90
2019-01-20T13:45:38.948Z,1.90
2019-01-20T13:48:11.418Z,2.00
2019-01-20T13:50:41.400Z,2.00
2019-01-20T13:53:11.100Z,2.00
2019-01-20T13:55:40.220Z,2.00
2019-01-20T13:58:09.327Z,2.00
2019-01-20T14:00:39.608Z,2.00
2019-01-20T14:03:09.499Z,2.00
2019-01-20T14:05:39.720Z,2.00
2019-01-20T14:08:08.887Z,2.00
2019-01-20T14:10:38.870Z,2.00
2019-01-20T14:13:09.221Z,2.00
2019-01-20T14:15:38.239Z,2.10
2019-01-20T14:18:08.365Z,2.10
2019-01-20T14:20:37.388Z,2.00
2019-01-20T14:23:06.447Z,2.00
2019-01-20T14:25:35.518Z,1.90
2019-01-20T14:28:07.447Z,1.90
2019-01-20T14:30:37.004Z,1.90
2019-01-20T14:33:06.138Z,2.00
2019-01-20T14:35:36.345Z,1.90
2019-01-20T14:38:05.418Z,1.90
2019-01-20T14:40:36.302Z,1.90
2019-01-20T14:45:56.818Z,1.90
2019-01-20T14:48:26.893Z,1.90
2019-01-20T14:50:55.969Z,1.80
2019-01-20T14:53:27.256Z,1.80
2019-01-20T14:55:57.568Z,1.80
2019-01-20T14:58:26.454Z,1.70
2019-01-20T15:00:55.907Z,1.70
2019-01-20T15:03:32.428Z,2.10
2019-01-20T15:05:58.771Z,2.90
2019-01-20T15:08:27.995Z,3.20
2019-01-20T15:10:57.000Z,3.70
2019-01-20T15:13:27.527Z,3.50
2019-01-20T15:15:56.531Z,3.30
2019-01-20T15:18:25.586Z,2.90
2019-01-20T15:20:57.250Z,2.40
2019-01-20T15:23:26.566Z,2.00
2019-01-20T15:25:56.944Z,1.70
2019-01-20T15:28:27.449Z,1.50
2019-01-20T15:30:56.824Z,1.50
2019-01-20T15:33:27.641Z,1.40
2019-01-20T15:35:56.906Z,1.30
2019-01-20T15:38:27.258Z,1.30
2019-01-20T15:43:49.944Z,1.10
2019-01-20T15:46:20.382Z,1.00
2019-01-20T15:48:51.348Z,0.90
2019-01-20T15:51:20.623Z,0.80
2019-01-20T15:53:53.306Z,0.80
2019-01-20T15:56:23.878Z,0.80
2019-01-20T15:58:53.784Z,0.70
2019-01-20T16:01:24.292Z,0.60
2019-01-20T16:03:54.256Z,0.50
2019-01-20T16:06:24.440Z,0.40
2019-01-20T16:08:57.953Z,0.30
2019-01-20T16:11:31.298Z,0.20
2019-01-20T16:13:58.818Z,0.10
2019-01-20T16:16:27.943Z,0.00
2019-01-20T16:19:02.039Z,0.00
2019-01-20T16:21:31.786Z,-0.10
2019-01-20T16:24:00.895Z,-0.20
2019-01-20T16:26:31.733Z,-0.30
2019-01-20T16:29:01.700Z,-0.40
2019-01-20T16:31:32.472Z,-0.50
2019-01-20T16:34:02.247Z,-0.50
2019-01-20T16:36:31.241Z,-0.40
2019-01-20T16:39:01.460Z,-0.50
2019-01-20T16:41:33.101Z,-0.50
2019-01-20T16:44:05.018Z,-0.70
2019-01-20T16:46:37.305Z,-0.90
2019-01-20T16:49:06.424Z,-0.90
2019-01-20T16:51:35.492Z,-0.90
2019-01-20T16:54:04.786Z,-0.90
2019-01-20T16:56:33.688Z,-0.80
2019-01-20T16:59:02.876Z,-0.80
2019-01-20T17:01:32.097Z,-0.90
2019-01-20T17:04:01.076Z,-0.90
2019-01-20T17:06:30.016Z,-0.80
2019-01-20T17:09:00.427Z,-0.90
2019-01-20T17:11:29.466Z,-1.00
2019-01-20T17:13:58.538Z,-1.00
2019-01-20T17:16:27.566Z,-1.10
2019-01-20T17:18:58.018Z,-1.10
2019-01-20T17:21:27.061Z,-1.20
2019-01-20T17:23:56.134Z,-1.20
2019-01-20T17:26:25.120Z,-1.20
2019-01-20T17:28:54.114Z,-1.20
2019-01-20T17:31:23.241Z,-1.30
2019-01-20T17:33:54.057Z,-1.30
2019-01-20T17:36:24.355Z,-1.40
2019-01-20T17:38:53.278Z,-1.50
2019-01-20T17:41:27.404Z,-1.50
2019-01-20T17:43:56.634Z,-1.50
2019-01-20T17:46:27.259Z,-1.60
2019-01-20T17:48:57.890Z,-1.50
2019-01-20T17:51:29.783Z,-1.60
2019-01-20T17:54:01.385Z,-1.50
2019-01-20T17:56:31.597Z,-1.50
2019-01-20T17:59:01.682Z,-1.50
2019-01-20T18:01:32.702Z,-1.50
2019-01-20T18:04:03.224Z,-1.50
2019-01-20T18:06:34.373Z,-1.40
2019-01-20T18:09:03.791Z,-1.30
2019-01-20T18:11:33.418Z,-1.30
2019-01-20T18:14:02.525Z,-1.30
2019-01-20T18:16:32.394Z,-1.30
2019-01-20T18:19:01.653Z,-1.40
2019-01-20T18:21:30.687Z,-1.50
2019-01-20T18:23:59.730Z,-1.60
2019-01-20T18:26:29.733Z,-1.60
2019-01-20T18:28:59.741Z,-1.70
2019-01-20T18:31:31.708Z,-1.70
2019-01-20T18:34:02.048Z,-1.70
2019-01-20T18:36:32.366Z,-1.60
2019-01-20T18:39:01.561Z,-1.50
2019-01-20T18:41:32.046Z,-1.50
2019-01-20T18:44:01.081Z,-1.60
2019-01-20T18:46:31.305Z,-1.60
2019-01-20T18:49:00.334Z,-1.60
2019-01-20T18:51:29.309Z,-1.70
2019-01-20T18:53:59.134Z,-1.70
2019-01-20T18:56:31.468Z,-1.60
2019-01-20T18:59:01.415Z,-1.80
2019-01-20T19:01:34.720Z,-1.90
2019-01-20T19:04:04.095Z,-1.90
2019-01-20T19:06:33.246Z,-1.90
2019-01-20T19:09:02.453Z,-2.00
2019-01-20T19:11:31.999Z,-1.90
2019-01-20T19:14:01.132Z,-1.90
2019-01-20T19:16:30.388Z,-2.00
2019-01-20T19:19:00.087Z,-2.00
2019-01-20T19:21:29.217Z,-2.30
2019-01-20T19:23:59.194Z,-2.50
2019-01-20T19:26:30.321Z,-2.50
2019-01-20T19:29:03.169Z,-2.40
2019-01-20T19:31:31.334Z,-2.30
2019-01-20T19:34:00.673Z,-2.40
2019-01-20T19:36:31.218Z,-2.60
2019-01-20T19:39:01.801Z,-2.60
2019-01-20T19:41:31.610Z,-2.70
2019-01-20T19:44:02.913Z,-2.80
2019-01-20T19:46:33.136Z,-2.90
2019-01-20T19:49:03.674Z,-3.00
2019-01-20T19:51:33.130Z,-3.20
2019-01-20T19:54:03.309Z,-3.30
2019-01-20T19:56:35.208Z,-3.30
2019-01-20T19:59:04.488Z,-3.40
2019-01-20T20:01:33.537Z,-3.60
2019-01-20T20:04:04.079Z,-3.80
2019-01-20T20:06:33.174Z,-3.90
2019-01-20T20:09:02.312Z,-4.10
2019-01-20T20:11:31.450Z,-4.30
2019-01-20T20:14:00.324Z,-4.50
2019-01-20T20:16:29.664Z,-4.60
2019-01-20T20:18:58.557Z,-4.70
2019-01-20T20:21:27.541Z,-4.90
2019-01-20T20:23:56.400Z,-4.90
2019-01-20T20:26:25.462Z,-5.00
2019-01-20T20:28:54.459Z,-4.90
2019-01-20T20:31:23.633Z,-4.90
2019-01-20T20:33:52.684Z,-4.80
2019-01-20T20:36:21.858Z,-4.50
2019-01-20T20:38:52.743Z,-4.00
2019-01-20T20:41:21.872Z,-3.70
2019-01-20T20:43:51.072Z,-3.50
2019-01-20T20:46:20.570Z,-3.40
2019-01-20T20:48:50.064Z,-3.40
2019-01-20T20:51:19.050Z,-3.50
2019-01-20T20:53:49.600Z,-3.50
2019-01-20T20:56:18.912Z,-3.60
2019-01-20T20:58:49.488Z,-3.60
2019-01-20T21:01:21.218Z,-3.70
2019-01-20T21:03:50.208Z,-3.70
2019-01-20T21:06:19.286Z,-3.70
2019-01-20T21:08:48.603Z,-3.80
2019-01-20T21:11:17.574Z,-3.90
2019-01-20T21:13:46.420Z,-4.00
2019-01-20T21:16:15.434Z,-4.00
2019-01-20T21:18:45.331Z,-4.00
2019-01-20T21:21:14.441Z,-4.10
2019-01-20T21:23:43.371Z,-4.00
2019-01-20T21:26:12.334Z,-4.10
2019-01-20T21:28:42.794Z,-4.00
2019-01-20T21:31:12.075Z,-4.00
2019-01-20T21:33:43.610Z,-4.10
2019-01-20T21:36:13.650Z,-4.20
2019-01-20T21:38:42.571Z,-4.40
2019-01-20T21:41:12.681Z,-4.50
2019-01-20T21:43:41.906Z,-4.60
2019-01-20T21:46:10.788Z,-4.80
2019-01-20T21:48:41.149Z,-4.90
2019-01-20T21:51:10.081Z,-5.00
2019-01-20T21:53:39.438Z,-5.10
2019-01-20T21:56:08.317Z,-5.10
2019-01-20T21:58:37.342Z,-5.10
2019-01-20T22:01:06.314Z,-5.10
2019-01-20T22:03:35.271Z,-5.20
2019-01-20T22:06:04.354Z,-5.30
2019-01-20T22:08:34.976Z,-5.20
2019-01-20T22:11:05.066Z,-5.00
2019-01-20T22:13:35.372Z,-4.90
2019-01-20T22:16:04.347Z,-5.00
2019-01-20T22:18:33.883Z,-5.20
2019-01-20T22:21:02.783Z,-5.20
2019-01-20T22:23:31.866Z,-5.20
2019-01-20T22:26:01.131Z,-5.10
2019-01-20T22:28:31.666Z,-5.00
2019-01-20T22:31:00.595Z,-5.10
2019-01-20T22:33:29.480Z,-5.10
2019-01-20T22:35:58.469Z,-5.00
2019-01-20T22:38:27.417Z,-4.90
2019-01-20T22:40:56.464Z,-4.70
2019-01-20T22:43:25.495Z,-4.70
2019-01-20T22:45:54.623Z,-4.80
2019-01-20T22:48:23.771Z,-5.00
2019-01-20T22:50:52.774Z,-5.10
2019-01-20T22:53:21.701Z,-5.30
2019-01-20T22:55:50.668Z,-5.50
2019-01-20T22:58:19.892Z,-5.70
2019-01-20T23:00:52.880Z,-6.00
2019-01-20T23:03:22.201Z,-6.10
2019-01-20T23:05:51.523Z,-6.10
2019-01-20T23:08:21.882Z,-6.30
2019-01-20T23:10:51.195Z,-6.40
2019-01-20T23:13:20.266Z,-6.50
2019-01-20T23:15:49.468Z,-6.50
2019-01-20T23:18:21.195Z,-6.60
2019-01-20T23:20:50.843Z,-6.60
2019-01-20T23:23:24.401Z,-6.50
2019-01-20T23:25:53.389Z,-6.50
2019-01-20T23:28:25.113Z,-6.60
2019-01-20T23:30:54.446Z,-6.60
2019-01-20T23:33:25.082Z,-6.50
2019-01-20T23:35:54.041Z,-6.10
2019-01-20T23:38:22.963Z,-5.80
2019-01-20T23:40:52.340Z,-5.50
2019-01-20T23:43:21.240Z,-5.40
2019-01-20T23:45:50.284Z,-5.40
2019-01-20T23:48:19.178Z,-5.50
2019-01-20T23:50:48.799Z,-5.50
2019-01-20T23:53:19.343Z,-5.50
2019-01-20T23:55:48.284Z,-5.40
2019-01-20T23:58:17.518Z,-5.30
